Time;durP1;ratioP1;P1;durP2;ratioP2;P2;SDS_P1;SDS_P2;PMS_P1;PMS_P2;Temp;Humidity;BMP_temperature;BMP_pressure;BME280_temperature;BME280_humidity;BME280_pressure;Samples;Min_cycle;Max_cycle;Signal;HPM_P1;HPM_P2
2022/08/08 00:01:17;;;;;;;13.70;5.63;;;;;;;14.56;100.00;102705.22;7377092;19;20011;-76
2022/08/08 00:04:01;;;;;;;11.02;5.20;;;;;;;14.55;100.00;102708.75;7379505;19;20003;-77
2022/08/08 00:06:37;;;;;;;;;;;;;;;14.54;100.00;102701.69;7378045;19;20014;-72
2022/08/08 00:09:17;;;;;;;11.77;5.15;;;;;;;14.51;100.00;102711.25;7376928;19;19918;-74
2022/08/08 00:11:55;;;;;;;10.52;5.65;;;;;;;14.45;100.00;102714.63;7377493;19;20530;-74
2022/08/08 00:14:52;;;;;;;10.88;4.97;;;;;;;14.44;100.00;102704.03;7375848;19;20310;-78
2022/08/08 00:18:03;;;;;;;10.85;6.00;;;;;;;14.43;100.00;102707.53;7374342;19;20427;-78
2022/08/08 00:20:42;;;;;;;11.98;5.47;;;;;;;14.35;100.00;102705.53;7376287;19;20007;-78
2022/08/08 00:23:24;;;;;;;11.43;5.30;;;;;;;14.34;100.00;102700.22;7375332;19;20019;-78
2022/08/08 00:26:16;;;;;;;12.27;4.97;;;;;;;14.29;100.00;102697.44;7376666;19;20014;-77
2022/08/08 00:29:03;;;;;;;10.63;5.07;;;;;;;14.28;100.00;102693.03;7377432;19;20014;-77
2022/08/08 00:31:43;;;;;;;11.50;5.40;;;;;;;14.24;100.00;102691.16;7379566;19;20036;-74
2022/08/08 00:37:39;;;;;;;8.75;5.45;;;;;;;14.19;100.00;102691.88;7378369;19;20034;-78
2022/08/08 00:40:52;;;;;;;11.70;4.88;;;;;;;14.13;100.00;102686.44;7376142;19;20553;-77
2022/08/08 00:44:05;;;;;;;10.18;4.70;;;;;;;14.08;100.00;102688.94;7374941;19;20022;-77
2022/08/08 00:47:12;;;;;;;10.98;4.75;;;;;;;14.08;100.00;102688.94;7374943;19;20047;-74
2022/08/08 00:50:39;;;;;;;9.98;4.95;;;;;;;14.06;100.00;102683.63;7373742;19;20092;-74
2022/08/08 00:53:42;;;;;;;8.75;4.70;;;;;;;14.04;100.00;102682.69;7368093;19;20018;-74
2022/08/08 00:56:55;;;;;;;8.75;5.22;;;;;;;14.03;100.00;102682.63;7372927;19;20018;-73
2022/08/08 01:00:11;;;;;;;9.18;5.05;;;;;;;13.98;100.00;102684.25;7372192;19;20036;-73
2022/08/08 01:03:13;;;;;;;11.80;5.18;;;;;;;13.95;100.00;102684.16;7378264;19;20046;-74
2022/08/08 01:06:20;;;;;;;10.55;5.00;;;;;;;13.92;100.00;102684.97;7374992;19;20077;-72
2022/08/08 01:09:42;;;;;;;10.65;4.68;;;;;;;13.89;100.00;102697.16;7377540;19;20029;-73
2022/08/08 01:12:52;;;;;;;11.25;4.72;;;;;;;13.84;100.00;102685.59;7377532;19;20006;-73
2022/08/08 01:15:57;;;;;;;10.85;6.10;;;;;;;13.80;100.00;102681.06;7374330;19;20022;-74
2022/08/08 01:19:06;;;;;;;10.00;4.88;;;;;;;13.77;100.00;102676.59;7378523;19;20006;-73
2022/08/08 01:22:12;;;;;;;11.98;5.40;;;;;;;13.74;100.00;102680.03;7372335;19;20104;-72
2022/08/08 01:25:15;;;;;;;10.38;4.70;;;;;;;13.72;100.00;102672.94;7373961;19;20037;-73
2022/08/08 01:28:28;;;;;;;9.80;5.00;;;;;;;13.70;100.00;102675.53;7370201;19;20377;-73
2022/08/08 01:31:39;;;;;;;11.45;5.78;;;;;;;13.71;100.00;102676.41;7370280;19;20127;-73
2022/08/08 01:34:58;;;;;;;9.57;4.82;;;;;;;13.65;100.00;102676.25;7370728;19;20018;-72
2022/08/08 01:37:55;;;;;;;10.27;5.03;;;;;;;13.58;100.00;102675.16;7372787;19;20110;-74
2022/08/08 01:40:38;;;;;;;8.60;5.07;;;;;;;13.55;100.00;102674.19;7375017;19;20526;-74
2022/08/08 01:43:17;;;;;;;10.30;4.80;;;;;;;13.53;100.00;102675.88;7369895;19;20263;-74
2022/08/08 01:45:59;;;;;;;12.93;5.28;;;;;;;13.49;100.00;102674.91;7370039;19;20562;-73
2022/08/08 01:48:51;;;;;;;8.63;4.72;;;;;;;13.46;100.00;102666.03;7374660;19;20017;-74
2022/08/08 01:51:57;;;;;;;9.63;5.28;;;;;;;13.44;100.00;102671.25;7373192;19;20021;-73
2022/08/08 01:55:01;;;;;;;7.95;4.25;;;;;;;13.41;100.00;102671.16;7371141;19;20021;-73
2022/08/08 01:58:08;;;;;;;9.45;4.78;;;;;;;13.39;100.00;102676.38;7376383;19;20058;-73
2022/08/08 02:00:53;;;;;;;10.60;4.70;;;;;;;13.39;100.00;102672.84;7372125;19;20002;-77
2022/08/08 02:03:43;;;;;;;9.18;4.60;;;;;;;13.39;100.00;102673.75;7362739;19;20018;-77
2022/08/08 02:06:44;;;;;;;9.13;5.03;;;;;;;13.37;100.00;102674.53;7374774;19;20007;-78
2022/08/08 02:09:28;;;;;;;10.95;4.93;;;;;;;13.36;100.00;102671.00;7370596;19;20366;-77
2022/08/08 02:12:25;;;;;;;11.35;4.82;;;;;;;13.31;100.00;102669.97;7373458;19;20014;-77
2022/08/08 02:15:04;;;;;;;10.02;4.63;;;;;;;13.28;100.00;102680.41;7373569;19;20026;-77
2022/08/08 02:17:52;;;;;;;10.75;4.72;;;;;;;13.25;100.00;102685.59;7373402;19;20091;-79
2022/08/08 02:20:31;;;;;;;10.68;5.13;;;;;;;13.23;100.00;102676.75;7367304;19;20507;-78
2022/08/08 02:23:23;;;;;;;10.63;5.10;;;;;;;13.23;100.00;102671.47;7375338;19;20018;-77
2022/08/08 02:26:11;;;;;;;8.88;4.53;;;;;;;13.21;100.00;102673.16;7372781;19;20015;-77
2022/08/08 02:29:00;;;;;;;11.50;4.95;;;;;;;13.21;100.00;102677.53;7369487;19;20517;-77
2022/08/08 02:31:45;;;;;;;12.50;5.53;;;;;;;13.18;100.00;102686.25;7374075;19;20493;-76
2022/08/08 02:34:53;;;;;;;10.57;5.15;;;;;;;13.15;100.00;102686.09;7375069;19;20052;-76
2022/08/08 02:37:53;;;;;;;11.60;5.07;;;;;;;13.11;100.00;102676.31;7371952;19;20082;-77
2022/08/08 02:40:38;;;;;;;11.93;5.95;;;;;;;13.08;100.00;102689.38;7377815;19;20015;-77
2022/08/08 02:43:26;;;;;;;;;;;;;;;13.05;100.00;102692.81;7373294;19;20673;-74
2022/08/08 02:46:36;;;;;;;11.90;5.72;;;;;;;13.05;100.00;102694.56;7373156;19;19925;-74
2022/08/08 02:49:38;;;;;;;12.03;5.53;;;;;;;13.03;100.00;102689.25;7369901;19;20011;-74
2022/08/08 02:52:40;;;;;;;10.82;5.00;;;;;;;13.02;100.00;102692.72;7369235;19;20384;-79
2022/08/08 02:55:51;;;;;;;9.77;4.95;;;;;;;12.99;100.00;102687.34;7369928;19;20029;-78
2022/08/08 02:59:10;;;;;;;11.60;5.20;;;;;;;12.97;100.00;102691.66;7373773;19;20287;-77
2022/08/08 03:02:36;;;;;;;10.50;5.43;;;;;;;12.94;100.00;102694.22;7367267;19;20094;-77
2022/08/08 03:05:46;;;;;;;12.15;5.32;;;;;;;12.96;100.00;102702.16;7367590;19;20578;-77
2022/08/08 03:08:55;;;;;;;11.70;5.90;;;;;;;12.92;100.00;102695.91;7377604;19;20045;-78
2022/08/08 03:12:06;;;;;;;10.23;5.47;;;;;;;12.88;100.00;102695.75;7371091;19;20051;-78
2022/08/08 03:14:58;;;;;;;10.07;5.28;;;;;;;12.87;100.00;102704.47;7373899;19;20439;-79
2022/08/08 03:18:01;;;;;;;12.20;6.55;;;;;;;12.84;100.00;102693.84;7373783;19;20109;-77
2022/08/08 03:20:46;;;;;;;15.95;6.32;;;;;;;12.83;100.00;102695.59;7369130;19;20021;-79
2022/08/08 03:23:24;;;;;;;12.95;6.13;;;;;;;12.81;100.00;102699.91;7370513;19;20013;-78
2022/08/08 03:26:09;;;;;;;12.77;5.63;;;;;;;12.81;100.00;102702.53;7370846;19;20020;-77
2022/08/08 03:28:45;;;;;;;12.85;6.13;;;;;;;12.79;100.00;102701.59;7376082;19;20017;-77
2022/08/08 03:34:25;;;;;;;12.75;6.32;;;;;;;12.77;100.00;102703.28;7375615;19;20573;-77
2022/08/08 03:36:56;;;;;;;13.23;6.18;;;;;;;12.78;100.00;102708.59;7379497;19;20010;-78
2022/08/08 03:39:29;;;;;;;11.23;5.80;;;;;;;12.78;100.00;102702.44;7377106;19;20018;-78
2022/08/08 03:42:07;;;;;;;11.30;5.75;;;;;;;12.81;100.00;102706.91;7376615;19;20003;-78
2022/08/08 03:44:58;;;;;;;13.80;5.88;;;;;;;12.79;100.00;102709.50;7377261;19;20006;-78
2022/08/08 03:47:28;;;;;;;15.82;6.40;;;;;;;12.78;100.00;102705.97;7377059;19;21110;-76
2022/08/08 03:50:20;;;;;;;13.50;6.13;;;;;;;12.80;100.00;102713.91;7379210;19;20007;-78
2022/08/08 03:52:55;;;;;;;12.45;6.00;;;;;;;12.81;100.00;102696.38;7376572;19;20017;-77
2022/08/08 03:55:29;;;;;;;11.55;6.22;;;;;;;12.80;100.00;102699.84;7381995;19;20018;-77
2022/08/08 03:58:22;;;;;;;12.02;6.15;;;;;;;12.75;100.00;102704.97;7378096;19;20085;-77
2022/08/08 04:01:08;;;;;;;10.57;6.50;;;;;;;12.73;100.00;102718.06;7374854;19;20009;-76
2022/08/08 04:03:54;;;;;;;12.18;6.10;;;;;;;12.72;100.00;102718.91;7378056;19;20186;-73
2022/08/08 04:06:29;;;;;;;12.63;6.15;;;;;;;12.70;100.00;102715.34;7374198;19;20022;-73
2022/08/08 04:09:04;;;;;;;12.88;5.95;;;;;;;12.65;100.00;102716.91;7377456;19;20014;-73
2022/08/08 04:11:44;;;;;;;10.48;5.75;;;;;;;12.65;100.00;102716.03;7378886;19;20049;-73
2022/08/08 04:14:28;;;;;;;11.23;5.78;;;;;;;12.65;100.00;102718.66;7378512;19;20055;-73
2022/08/08 04:17:07;;;;;;;12.10;6.20;;;;;;;12.67;100.00;102725.75;7373505;19;20038;-73
2022/08/08 04:19:59;;;;;;;14.55;6.65;;;;;;;12.66;100.00;102718.72;7372443;19;20034;-74
2022/08/08 04:22:30;;;;;;;12.20;6.75;;;;;;;12.68;100.00;102721.41;7373250;19;20024;-74
2022/08/08 04:25:02;;;;;;;12.60;6.72;;;;;;;12.66;100.00;102726.59;7376104;19;20045;-72
2022/08/08 04:27:40;;;;;;;14.55;6.00;;;;;;;12.66;100.00;102731.88;7370947;19;20011;-74
2022/08/08 04:30:32;;;;;;;12.35;5.70;;;;;;;12.67;100.00;102728.41;7375054;19;20627;-74
2022/08/08 04:33:15;;;;;;;13.83;6.57;;;;;;;12.69;100.00;102734.59;7375362;19;20014;-73
2022/08/08 04:35:45;;;;;;;12.15;6.78;;;;;;;12.70;100.00;102735.50;7377849;19;20010;-73
2022/08/08 04:38:20;;;;;;;13.55;7.07;;;;;;;12.69;100.00;102737.25;7372634;19;20030;-72
2022/08/08 04:40:51;;;;;;;17.35;7.95;;;;;;;12.73;100.00;102744.41;7377061;19;20006;-73
2022/08/08 04:43:27;;;;;;;18.23;9.75;;;;;;;12.76;100.00;102749.78;7378092;19;20007;-78
2022/08/08 04:46:14;;;;;;;22.20;12.10;;;;;;;12.80;100.00;102750.78;7378793;19;20019;-78
2022/08/08 04:48:47;;;;;;;16.98;8.73;;;;;;;12.85;100.00;102753.56;7378046;19;20006;-77
2022/08/08 04:51:19;;;;;;;16.90;9.13;;;;;;;12.89;100.00;102747.56;7372743;19;20010;-78
2022/08/08 04:54:04;;;;;;;15.18;7.45;;;;;;;12.92;100.00;102751.19;7373679;19;20015;-77
2022/08/08 04:56:56;;;;;;;17.10;8.35;;;;;;;12.98;100.00;102745.25;7373425;19;20006;-73
2022/08/08 04:59:29;;;;;;;14.32;7.00;;;;;;;13.02;100.00;102750.66;7370875;19;20007;-73
2022/08/08 05:02:10;;;;;;;;;;;;;;;13.09;100.00;102746.50;7377292;19;20010;-77
2022/08/08 05:04:47;;;;;;;17.40;8.70;;;;;;;13.14;100.00;102750.19;7370266;19;21391;-77
2022/08/08 05:07:20;;;;;;;19.13;8.85;;;;;;;13.18;100.00;102752.09;7375022;19;20014;-77
2022/08/08 05:09:54;;;;;;;17.35;9.73;;;;;;;13.26;100.00;102761.16;7378357;19;20007;-77
2022/08/08 05:12:24;;;;;;;17.75;8.27;;;;;;;13.32;100.00;102756.09;7377547;19;20307;-75
2022/08/08 05:15:09;;;;;;;19.98;8.98;;;;;;;13.37;100.00;102754.50;7375249;19;20015;-74
2022/08/08 05:17:43;;;;;;;17.00;8.02;;;;;;;13.48;100.00;102754.84;7375955;19;20029;-74
2022/08/08 05:20:25;;;;;;;18.25;8.93;;;;;;;13.60;100.00;102755.19;7372951;19;20055;-77
2022/08/08 05:23:04;;;;;;;17.05;7.97;;;;;;;13.82;100.00;102748.84;7374647;19;20406;-78
2022/08/08 05:25:36;;;;;;;16.65;8.55;;;;;;;14.13;100.00;102760.31;7373820;19;20162;-77
2022/08/08 05:28:11;;;;;;;19.98;8.68;;;;;;;14.35;100.00;102758.31;7371406;19;20018;-78
2022/08/08 05:30:46;;;;;;;17.60;9.48;;;;;;;14.54;100.00;102756.22;7375212;19;20026;-79
2022/08/08 05:33:25;;;;;;;18.27;8.98;;;;;;;14.73;100.00;102754.09;7372948;19;20117;-77
2022/08/08 05:36:17;;;;;;;19.48;8.88;;;;;;;15.02;100.00;102753.97;7373642;19;20007;-77
2022/08/08 05:39:02;;;;;;;17.85;8.88;;;;;;;15.22;100.00;102758.00;7374500;19;20021;-77
2022/08/08 05:41:40;;;;;;;19.80;9.03;;;;;;;15.45;100.00;102758.56;7373605;19;20018;-77
2022/08/08 05:44:28;;;;;;;20.92;9.15;;;;;;;15.71;100.00;102759.16;7368324;19;20030;-77
2022/08/08 05:47:04;;;;;;;23.17;10.18;;;;;;;15.90;100.00;102758.72;7374067;19;20011;-77
2022/08/08 05:49:34;;;;;;;18.88;9.95;;;;;;;16.16;100.00;102761.91;7373192;19;19999;-78
2022/08/08 05:52:07;;;;;;;19.35;9.50;;;;;;;16.41;100.00;102760.66;7374176;19;20006;-78
2022/08/08 05:54:38;;;;;;;19.88;9.43;;;;;;;16.64;100.00;102754.03;7373346;19;20014;-77
2022/08/08 05:57:29;;;;;;;20.65;9.35;;;;;;;16.84;100.00;102762.38;7369448;19;20010;-80
2022/08/08 06:00:21;;;;;;;15.48;8.30;;;;;;;17.14;100.00;102762.00;7369173;19;20010;-78
2022/08/08 06:03:13;;;;;;;20.25;8.57;;;;;;;17.35;100.00;102758.81;7371663;19;20099;-77
2022/08/08 06:05:57;;;;;;;21.38;9.13;;;;;;;17.41;100.00;102760.66;7370929;19;20256;-73
2022/08/08 06:08:36;;;;;;;19.30;7.82;;;;;;;17.76;100.00;102764.75;7371854;19;20066;-73
2022/08/08 06:11:07;;;;;;;19.92;8.77;;;;;;;17.95;100.00;102763.22;7370528;19;20027;-74
2022/08/08 06:13:46;;;;;;;20.17;7.80;;;;;;;18.13;100.00;102770.56;7371270;19;20044;-77
2022/08/08 06:16:18;;;;;;;19.48;8.20;;;;;;;18.24;100.00;102775.13;7372602;19;20010;-77
2022/08/08 06:19:06;;;;;;;13.10;6.78;;;;;;;18.56;100.00;102778.16;7374440;19;20260;-76
2022/08/08 06:21:39;;;;;;;16.88;7.93;;;;;;;18.72;100.00;102773.91;7376397;19;20050;-78
2022/08/08 06:24:20;;;;;;;13.52;6.45;;;;;;;18.84;100.00;102774.03;7374198;19;20062;-78
2022/08/08 06:27:07;;;;;;;16.00;6.93;;;;;;;18.72;100.00;102783.66;7373189;19;20015;-78
2022/08/08 06:29:47;;;;;;;12.02;6.45;;;;;;;18.98;100.00;102782.13;7374112;19;20224;-80
2022/08/08 06:32:33;;;;;;;12.68;5.68;;;;;;;19.04;100.00;102776.88;7376291;19;20029;-78
2022/08/08 06:38:24;;;;;;;12.98;5.35;;;;;;;19.57;100.00;102776.44;7371423;19;20457;-78
2022/08/08 06:41:06;;;;;;;13.77;5.93;;;;;;;19.63;100.00;102783.56;7373595;19;20011;-77
2022/08/08 06:43:50;;;;;;;11.50;6.03;;;;;;;19.69;100.00;102776.53;7370641;19;20021;-78
2022/08/08 06:46:26;;;;;;;11.60;6.15;;;;;;;19.67;100.00;102783.59;7370751;19;20011;-77
2022/08/08 06:49:03;;;;;;;13.00;6.35;;;;;;;19.89;100.00;102788.16;7374652;19;20015;-79
2022/08/08 06:51:43;;;;;;;15.13;6.07;;;;;;;20.01;100.00;102782.00;7371972;19;20019;-79
2022/08/08 06:54:28;;;;;;;11.45;6.07;;;;;;;20.36;100.00;102789.25;7362545;19;20011;-77
2022/08/08 06:57:03;;;;;;;15.15;6.68;;;;;;;20.30;100.00;102791.91;7365906;19;20021;-78
2022/08/08 06:59:44;;;;;;;9.80;5.78;;;;;;;20.45;100.00;102790.22;7369388;19;20092;-79
2022/08/08 07:02:44;;;;;;;17.00;6.40;;;;;;;20.71;100.00;102784.94;7373207;19;20030;-76
2022/08/08 07:05:17;;;;;;;14.82;5.95;;;;;;;20.50;99.61;102788.44;7376126;19;20014;-76
2022/08/08 07:08:05;;;;;;;13.35;5.72;;;;;;;20.84;99.34;102785.84;7377558;19;20011;-77
2022/08/08 07:10:40;;;;;;;13.68;5.55;;;;;;;21.20;100.00;102784.97;7374217;19;20314;-78
2022/08/08 07:13:19;;;;;;;12.75;5.28;;;;;;;20.87;97.49;102786.72;7375015;19;20110;-76
2022/08/08 07:16:01;;;;;;;12.45;4.57;;;;;;;20.82;97.23;102788.50;7376280;19;21075;-80
2022/08/08 07:18:45;;;;;;;9.27;4.45;;;;;;;20.82;97.21;102798.28;7377242;19;20680;-78
2022/08/08 07:21:20;;;;;;;10.00;4.70;;;;;;;20.75;97.80;102793.84;7375917;19;20017;-76
2022/08/08 07:24:02;;;;;;;12.13;4.80;;;;;;;20.90;97.23;102802.75;7383799;19;20007;-81
2022/08/08 07:26:36;;;;;;;9.50;4.63;;;;;;;20.79;97.28;102798.31;7379271;19;20373;-77
2022/08/08 07:29:07;;;;;;;9.43;4.40;;;;;;;21.14;96.44;102793.88;7378760;19;20039;-78
2022/08/08 07:31:58;;;;;;;9.57;4.13;;;;;;;21.69;95.22;102799.22;7376175;19;20489;-79
2022/08/08 07:34:31;;;;;;;10.02;4.20;;;;;;;21.70;94.03;102806.34;7374252;19;20113;-77
2022/08/08 07:37:04;;;;;;;9.00;4.22;;;;;;;21.68;94.13;102797.44;7379053;19;20021;-76
2022/08/08 07:39:45;;;;;;;8.85;4.05;;;;;;;21.55;92.92;102809.03;7380782;19;20035;-79
2022/08/08 07:42:26;;;;;;;9.00;4.45;;;;;;;21.80;93.01;102809.88;7374878;19;20015;-79
2022/08/08 07:45:04;;;;;;;12.15;4.72;;;;;;;21.56;93.52;102818.81;7376887;19;20081;-78
2022/08/08 07:47:35;;;;;;;9.38;4.88;;;;;;;21.76;92.34;102813.44;7376454;19;20052;-79
2022/08/08 07:50:09;;;;;;;14.68;4.65;;;;;;;22.06;92.36;102807.13;7380362;19;20011;-77
2022/08/08 07:52:48;;;;;;;9.70;4.55;;;;;;;22.14;91.30;102818.69;7370163;19;20034;-76
2022/08/08 07:55:25;;;;;;;11.48;4.45;;;;;;;21.37;93.36;102815.25;7375972;19;20015;-77
2022/08/08 07:58:15;;;;;;;8.48;4.55;;;;;;;21.73;93.14;102817.00;7371566;19;20750;-79
2022/08/08 08:00:53;;;;;;;10.80;5.10;;;;;;;21.41;92.47;102818.81;7376661;19;20037;-78
2022/08/08 08:03:32;;;;;;;11.38;4.22;;;;;;;21.37;93.61;102827.72;7371589;19;20268;-77
2022/08/08 08:06:15;;;;;;;9.40;4.65;;;;;;;21.86;91.90;102828.53;7373472;19;20006;-78
2022/08/08 08:09:06;;;;;;;11.48;5.68;;;;;;;22.20;90.00;102829.34;7373961;19;20553;-77
2022/08/08 08:11:51;;;;;;;10.18;5.30;;;;;;;22.46;88.35;102829.25;7373022;19;20108;-78
2022/08/08 08:14:30;;;;;;;13.80;6.45;;;;;;;21.90;87.87;102824.06;7374669;19;20044;-79
2022/08/08 08:17:05;;;;;;;9.85;5.72;;;;;;;21.92;89.78;102830.28;7375599;19;20009;-79
2022/08/08 08:19:41;;;;;;;9.75;5.50;;;;;;;21.27;90.02;102831.28;7375042;19;20018;-77
2022/08/08 08:22:20;;;;;;;13.65;6.10;;;;;;;21.48;90.20;102841.94;7377982;19;20048;-80
2022/08/08 08:25:00;;;;;;;9.45;5.40;;;;;;;21.45;91.00;102833.94;7378173;19;20015;-78
2022/08/08 08:27:42;;;;;;;14.20;6.70;;;;;;;22.36;88.13;102831.09;7379452;19;20011;-79
2022/08/08 08:30:16;;;;;;;11.20;5.63;;;;;;;22.66;87.87;102839.84;7378227;19;20107;-78
2022/08/08 08:32:58;;;;;;;10.65;6.10;;;;;;;22.81;84.76;102847.84;7379228;19;20044;-79
2022/08/08 08:35:31;;;;;;;10.85;5.72;;;;;;;23.29;84.24;102834.97;7378407;19;20042;-77
2022/08/08 08:38:24;;;;;;;11.32;5.53;;;;;;;23.92;80.44;102835.31;7377734;19;20554;-77
2022/08/08 08:40:55;;;;;;;10.32;6.03;;;;;;;24.09;77.84;102827.94;7377850;19;20006;-78
2022/08/08 08:43:30;;;;;;;10.25;5.20;;;;;;;24.17;74.62;102836.78;7371064;19;20015;-79
2022/08/08 08:46:01;;;;;;;9.30;5.72;;;;;;;23.83;74.86;102835.41;7376413;19;20007;-78
2022/08/08 08:48:40;;;;;;;12.38;5.13;;;;;;;23.92;73.95;102838.00;7380625;19;20427;-78
2022/08/08 08:51:21;;;;;;;11.15;5.55;;;;;;;24.31;74.29;102840.25;7376480;19;20014;-78
2022/08/08 08:53:55;;;;;;;8.95;5.22;;;;;;;23.64;74.60;102835.59;7372751;19;20022;-77
2022/08/08 08:56:30;;;;;;;10.57;5.20;;;;;;;23.64;74.61;102840.97;7375852;19;20011;-77
2022/08/08 08:59:05;;;;;;;9.15;5.07;;;;;;;22.79;77.65;102831.78;7378403;19;20386;-77
2022/08/08 09:01:46;;;;;;;8.45;4.55;;;;;;;23.05;76.96;102836.94;7378790;19;20466;-77
2022/08/08 09:04:27;;;;;;;9.65;5.28;;;;;;;22.89;77.53;102848.66;7378131;19;20009;-79
2022/08/08 09:07:12;;;;;;;10.18;5.15;;;;;;;22.74;78.59;102843.38;7379594;19;20006;-78
2022/08/08 09:09:46;;;;;;;10.77;5.80;;;;;;;22.38;81.94;102836.41;7376835;19;20044;-78
2022/08/08 09:12:32;;;;;;;8.90;5.30;;;;;;;22.48;80.91;102835.50;7380274;19;20275;-80
2022/08/08 09:15:16;;;;;;;9.63;5.47;;;;;;;22.28;81.32;102850.72;7384189;19;20013;-80
2022/08/08 09:18:16;;;;;;;10.95;4.00;;;;;;;21.67;87.08;102848.16;7381408;19;20490;-78
2022/08/08 09:20:50;;;;;;;9.70;3.75;;;;;;;21.80;87.03;102847.28;7375211;19;20029;-81
2022/08/08 09:23:45;;;;;;;9.30;3.88;;;;;;;21.43;90.10;102849.97;7371830;19;20015;-77
2022/08/08 09:26:22;;;;;;;10.40;4.00;;;;;;;20.97;92.20;102861.44;7377366;19;20047;-78
2022/08/08 09:28:59;;;;;;;8.15;4.30;;;;;;;20.97;92.57;102864.97;7378264;19;20450;-76
2022/08/08 09:31:53;;;;;;;7.53;3.80;;;;;;;20.92;93.01;102863.19;7375689;19;20006;-77
2022/08/08 09:34:27;;;;;;;9.73;4.55;;;;;;;21.25;90.93;102854.41;7373904;19;20554;-77
2022/08/08 09:37:07;;;;;;;11.50;4.95;;;;;;;21.68;90.22;102866.88;7376084;19;20018;-77
2022/08/08 09:40:02;;;;;;;8.43;4.30;;;;;;;21.92;87.90;102867.69;7374300;19;20014;-78
2022/08/08 09:42:42;;;;;;;11.95;4.88;;;;;;;22.08;86.99;102869.47;7372661;19;20025;-80
2022/08/08 09:45:28;;;;;;;10.85;5.22;;;;;;;22.23;84.88;102863.19;7372698;19;20014;-79
2022/08/08 09:48:21;;;;;;;10.07;4.40;;;;;;;22.49;84.19;102861.31;7374053;19;20047;-77
2022/08/08 09:51:05;;;;;;;8.90;4.45;;;;;;;22.41;81.49;102861.34;7367331;19;20006;-77
2022/08/08 09:53:43;;;;;;;10.05;3.67;;;;;;;22.71;79.93;102859.44;7368662;19;20014;-77
2022/08/08 09:56:36;;;;;;;9.13;4.00;;;;;;;23.27;78.76;102863.56;7374811;19;20011;-77
2022/08/08 09:59:17;;;;;;;8.95;3.90;;;;;;;23.99;76.96;102847.72;7370331;19;20044;-80
2022/08/08 10:02:08;;;;;;;7.80;3.65;;;;;;;24.08;73.99;102844.94;7376762;19;20024;-80
2022/08/08 10:04:45;;;;;;;9.43;3.97;;;;;;;24.05;71.36;102842.28;7371503;19;20018;-79
2022/08/08 10:07:21;;;;;;;9.10;3.88;;;;;;;24.61;70.72;102849.69;7366593;19;20006;-77
2022/08/08 10:09:54;;;;;;;7.22;3.95;;;;;;;24.21;68.57;102838.53;7372207;19;20010;-80
2022/08/08 10:12:37;;;;;;;7.43;4.13;;;;;;;24.44;68.51;102847.22;7371348;19;20868;-77
2022/08/08 10:15:27;;;;;;;7.38;3.28;;;;;;;23.59;71.67;102853.50;7372781;19;20021;-77
2022/08/08 10:17:59;;;;;;;8.50;3.17;;;;;;;23.33;71.89;102855.47;7372275;19;20026;-76
2022/08/08 10:20:50;;;;;;;6.00;2.90;;;;;;;22.82;75.38;102857.63;7373577;19;20015;-77
2022/08/08 10:23:45;;;;;;;7.72;3.53;;;;;;;23.17;73.73;102855.59;7376339;19;20007;-78
2022/08/08 10:26:30;;;;;;;9.00;3.85;;;;;;;23.74;74.01;102848.00;7377944;19;20070;-75
2022/08/08 10:29:24;;;;;;;7.17;3.67;;;;;;;24.73;68.15;102849.53;7376277;19;20018;-75
2022/08/08 10:34:57;;;;;;;4.32;2.90;;;;;;;24.63;65.86;102850.56;7376064;19;20078;-75
2022/08/08 10:37:34;;;;;;;6.65;3.00;;;;;;;24.30;66.61;102849.19;7375432;19;20007;-75
2022/08/08 10:40:15;;;;;;;5.10;3.03;;;;;;;24.09;67.70;102854.75;7374554;19;20031;-77
2022/08/08 10:42:57;;;;;;;5.53;3.15;;;;;;;23.03;69.91;102852.13;7380552;19;20009;-76
2022/08/08 10:45:28;;;;;;;7.72;3.33;;;;;;;24.07;69.41;102845.84;7379412;19;20014;-77
2022/08/08 10:48:13;;;;;;;7.20;3.42;;;;;;;25.08;65.31;102840.94;7378027;19;20014;-77
2022/08/08 10:50:44;;;;;;;7.68;3.63;;;;;;;25.02;64.35;102834.78;7380150;19;20018;-77
2022/08/08 10:53:18;;;;;;;6.30;3.00;;;;;;;23.62;67.21;102848.13;7373239;19;20011;-77
2022/08/08 10:56:10;;;;;;;7.47;3.00;;;;;;;23.08;68.37;102854.75;7377644;19;20021;-77
2022/08/08 10:59:01;;;;;;;6.03;3.08;;;;;;;22.52;71.58;102854.19;7377889;19;20515;-77
2022/08/08 11:01:32;;;;;;;5.65;3.10;;;;;;;22.60;72.28;102847.91;7376894;19;20303;-77
2022/08/08 11:04:03;;;;;;;4.50;3.08;;;;;;;22.64;72.55;102847.00;7376119;19;20015;-77
2022/08/08 11:06:37;;;;;;;4.63;2.92;;;;;;;22.33;72.08;102836.44;7377360;19;20006;-77
2022/08/08 11:09:20;;;;;;;4.57;2.90;;;;;;;22.62;70.74;102832.75;7376746;19;20048;-74
2022/08/08 11:11:57;;;;;;;5.93;2.90;;;;;;;22.69;71.62;102838.06;7375498;19;20038;-74
2022/08/08 11:14:50;;;;;;;6.78;2.95;;;;;;;22.73;72.24;102841.59;7376863;19;20007;-75
2022/08/08 11:17:26;;;;;;;5.50;2.90;;;;;;;22.56;71.04;102833.66;7377764;19;20042;-77
2022/08/08 11:20:18;;;;;;;3.65;2.45;;;;;;;22.47;70.35;102847.97;7374785;19;20007;-78
2022/08/08 11:22:58;;;;;;;6.00;2.60;;;;;;;22.34;70.74;102831.97;7375285;19;20006;-77
2022/08/08 11:25:33;;;;;;;5.72;2.70;;;;;;;22.63;71.46;102830.06;7373859;19;20016;-78
2022/08/08 11:28:27;;;;;;;6.60;3.20;;;;;;;23.54;69.17;102833.03;7376057;19;20015;-77
2022/08/08 11:31:03;;;;;;;3.95;2.65;;;;;;;24.21;66.11;102817.09;7373102;19;20017;-77
2022/08/08 11:33:41;;;;;;;6.95;3.00;;;;;;;24.17;64.27;102823.41;7373091;19;20010;-75
2022/08/08 11:36:32;;;;;;;4.60;3.03;;;;;;;23.90;64.62;102821.06;7373766;19;20332;-75
2022/08/08 11:39:06;;;;;;;7.20;2.90;;;;;;;23.73;67.30;102822.13;7374075;19;20357;-74
2022/08/08 11:41:45;;;;;;;4.80;2.60;;;;;;;23.50;64.73;102824.09;7373180;19;20011;-74
2022/08/08 11:44:25;;;;;;;4.60;2.47;;;;;;;23.37;65.02;102817.97;7372592;19;20369;-74
2022/08/08 11:46:59;;;;;;;3.38;2.60;;;;;;;23.61;65.04;102818.66;7373087;19;20031;-73
2022/08/08 11:49:32;;;;;;;5.20;2.63;;;;;;;24.23;64.29;102814.38;7377592;19;20013;-74
2022/08/08 11:52:05;;;;;;;4.07;2.60;;;;;;;24.70;61.67;102820.03;7381567;19;20082;-74
2022/08/08 11:54:47;;;;;;;4.23;2.70;;;;;;;24.18;61.13;102817.13;7380185;19;20006;-74
2022/08/08 11:57:32;;;;;;;5.38;3.10;;;;;;;24.26;61.37;102809.91;7382925;19;20023;-74
2022/08/08 12:00:08;;;;;;;4.70;2.60;;;;;;;24.74;61.55;102807.47;7380672;19;20022;-75
2022/08/08 12:02:48;;;;;;;6.57;2.90;;;;;;;25.00;60.21;102799.91;7381495;19;20074;-77
2022/08/08 12:05:20;;;;;;;2.72;2.45;;;;;;;25.27;60.06;102803.94;7379806;19;20412;-74
2022/08/08 12:07:54;;;;;;;4.95;2.75;;;;;;;24.98;60.53;102801.75;7379878;19;20483;-74
2022/08/08 12:10:30;;;;;;;5.45;2.50;;;;;;;24.68;60.31;102807.56;7384378;19;20021;-74
2022/08/08 12:13:06;;;;;;;7.18;2.95;;;;;;;24.52;62.12;102809.56;7379638;19;20662;-73
2022/08/08 12:15:51;;;;;;;7.28;3.10;;;;;;;23.62;63.54;102810.63;7375370;19;20085;-73
2022/08/08 12:21:27;;;;;;;5.90;3.10;;;;;;;24.24;61.76;102795.59;7373362;19;21582;-73
2022/08/08 12:24:22;;;;;;;8.18;3.28;;;;;;;24.79;61.03;102797.56;7372934;19;20442;-73
2022/08/08 12:26:58;;;;;;;3.67;2.50;;;;;;;24.01;61.86;102798.56;7372397;19;20022;-72
2022/08/08 12:29:39;;;;;;;7.60;2.75;;;;;;;23.91;62.91;102801.41;7377579;19;20078;-73
2022/08/08 12:32:15;;;;;;;11.15;6.20;;;;;;;24.22;62.89;102801.88;7378040;19;20714;-73
2022/08/08 12:34:53;;;;;;;9.43;4.15;;;;;;;24.25;62.53;102799.16;7372977;19;20078;-73
2022/08/08 12:37:32;;;;;;;5.20;2.63;;;;;;;23.80;64.19;102794.34;7374732;19;20036;-73
2022/08/08 12:40:15;;;;;;;6.07;3.03;;;;;;;24.67;59.98;102781.63;7369488;19;20010;-73
2022/08/08 12:42:54;;;;;;;6.00;3.22;;;;;;;25.13;59.25;102783.59;7376251;19;20105;-74
2022/08/08 12:45:38;;;;;;;5.50;2.92;;;;;;;24.63;60.93;102788.84;7374391;19;20019;-73
2022/08/08 12:48:29;;;;;;;3.65;2.70;;;;;;;24.90;58.73;102795.59;7367836;19;20025;-73
2022/08/08 12:51:08;;;;;;;6.07;2.60;;;;;;;24.18;60.87;102802.84;7370254;19;20436;-77